Time,TemperatureF,DewpointF,PressureIn,WindDirection,WindDirectionDegrees,WindSpeedMPH,WindSpeedGustMPH,Humidity,HourlyPrecipIn,Conditions,Clouds,dailyrainin,SoftwareType,DateUTC
2013-08-22 00:00:00,73.7,68.2,30.00,SSE,158,0.0,0.0,83,0.00,,,0.00,Wunderground v.1.15,2013-08-22 05:00:00,
2013-08-22 00:10:00,73.4,68.3,30.00,SSE,158,0.0,4.0,84,0.00,,,0.00,Wunderground v.1.15,2013-08-22 05:10:00,
2013-08-22 00:20:00,73.3,68.2,30.00,SSE,150,0.0,4.0,84,0.00,,,0.00,Wunderground v.1.15,2013-08-22 05:20:00,
2013-08-22 00:25:00,73.2,68.4,30.00,SSE,150,0.0,4.0,85,0.00,,,0.00,Wunderground v.1.15,2013-08-22 05:25:00,
2013-08-22 00:35:00,73.1,68.3,30.00,SE,145,0.0,4.0,85,0.00,,,0.00,Wunderground v.1.15,2013-08-22 05:35:00,
2013-08-22 00:40:00,73.1,68.3,30.00,SE,145,0.0,4.0,85,0.00,,,0.00,Wunderground v.1.15,2013-08-22 05:40:00,
2013-08-22 00:50:00,72.9,68.1,30.00,SE,145,0.0,4.0,85,0.00,,,0.00,Wunderground v.1.15,2013-08-22 05:50:00,
2013-08-22 01:00:00,72.4,68.0,30.00,SE,146,0.0,0.0,86,0.00,,,0.00,Wunderground v.1.15,2013-08-22 06:00:00,
2013-08-22 01:10:00,72.2,68.1,30.00,SE,146,0.0,2.0,87,0.00,,,0.00,Wunderground v.1.15,2013-08-22 06:10:00,
2013-08-22 01:15:00,72.2,68.1,30.00,SE,140,0.0,2.0,87,0.00,,,0.00,Wunderground v.1.15,2013-08-22 06:15:00,
2013-08-22 01:25:00,72.4,68.3,30.00,SE,141,0.0,2.0,87,0.00,,,0.00,Wunderground v.1.15,2013-08-22 06:25:00,
2013-08-22 01:30:00,72.4,68.0,30.00,SE,134,0.0,2.0,86,0.00,,,0.00,Wunderground v.1.15,2013-08-22 06:30:00,
2013-08-22 01:40:00,72.6,67.8,30.00,SSW,195,0.0,2.0,85,0.00,,,0.00,Wunderground v.1.15,2013-08-22 06:40:00,
2013-08-22 01:50:00,72.8,68.0,30.00,West,266,0.0,2.0,85,0.00,,,0.00,Wunderground v.1.15,2013-08-22 06:50:00,
2013-08-22 02:00:00,72.8,68.0,30.00,West,266,0.0,1.0,85,0.00,,,0.00,Wunderground v.1.15,2013-08-22 07:00:00,
2013-08-22 02:10:00,72.8,68.0,30.00,SSE,150,0.0,1.0,85,0.00,,,0.00,Wunderground v.1.15,2013-08-22 07:10:00,
2013-08-22 02:20:00,72.6,68.5,29.99,SSW,203,2.0,2.0,87,0.99,,,0.05,Wunderground v.1.15,2013-08-22 07:20:00,
2013-08-22 08:50:00,69.9,68.7,30.07,East,82,3.0,3.0,96,0.17,,,0.59,Wunderground v.1.15,2013-08-22 13:50:00,
2013-08-22 08:55:00,69.9,68.7,30.08,ENE,68,4.0,4.0,96,0.37,,,0.62,Wunderground v.1.15,2013-08-22 13:55:00,
2013-08-22 09:00:00,69.8,68.6,30.08,ESE,107,4.0,4.0,96,0.18,,,0.64,Wunderground v.1.15,2013-08-22 14:00:00,
2013-08-22 09:10:00,69.6,68.4,30.07,ENE,65,2.0,2.0,96,0.06,,,0.65,Wunderground v.1.15,2013-08-22 14:10:00,
2013-08-22 09:20:00,69.5,68.3,30.07,South,172,0.0,8.0,96,0.36,,,0.72,Wunderground v.1.15,2013-08-22 14:20:00,
2013-08-22 09:30:00,69.4,68.5,30.06,ESE,111,1.0,8.0,97,0.46,,,0.76,Wunderground v.1.15,2013-08-22 14:30:00,
2013-08-22 09:40:00,69.4,68.5,30.06,ENE,77,1.0,8.0,97,0.18,,,0.80,Wunderground v.1.15,2013-08-22 14:40:00,
2013-08-22 10:51:00,68.8,67.9,30.09,ENE,63,0.0,0.0,97,0.20,,,1.22,Wunderground v.1.15,2013-08-22 15:51:00,
2013-08-22 11:00:00,68.8,67.9,30.08,WNW,291,0.0,0.0,97,0.07,,,1.23,Wunderground v.1.15,2013-08-22 16:00:00,
2013-08-22 11:10:00,68.7,67.8,30.09,NE,52,1.0,8.0,97,0.12,,,1.27,Wunderground v.1.15,2013-08-22 16:10:00,
2013-08-22 11:20:00,68.6,67.7,30.10,NE,49,3.0,8.0,97,0.07,,,1.28,Wunderground v.1.15,2013-08-22 16:20:00,
2013-08-22 11:30:00,68.5,67.6,30.08,ENE,73,6.0,8.0,97,0.66,,,1.42,Wunderground v.1.15,2013-08-22 16:30:00,
2013-08-22 11:40:00,68.6,67.7,30.08,SSE,148,3.0,3.0,97,0.07,,,1.44,Wunderground v.1.15,2013-08-22 16:40:00,
2013-08-22 11:50:00,69.1,68.2,30.07,East,92,1.0,1.0,97,0.00,,,1.44,Wunderground v.1.15,2013-08-22 16:50:00,
2013-08-22 12:00:00,69.9,68.4,30.07,ENE,70,1.0,2.0,95,0.00,,,1.44,Wunderground v.1.15,2013-08-22 17:00:00,
2013-08-22 12:10:00,70.0,68.5,30.08,NE,36,2.0,3.0,95,0.00,,,1.44,Wunderground v.1.15,2013-08-22 17:10:00,
2013-08-22 12:20:00,69.9,67.5,30.08,NE,44,3.0,7.0,92,0.00,,,1.44,Wunderground v.1.15,2013-08-22 17:20:00,
2013-08-22 12:30:00,68.7,66.9,30.11,NNW,340,8.0,8.0,94,0.00,,,1.45,Wunderground v.1.15,2013-08-22 17:30:00,
2013-08-22 12:40:00,68.1,66.3,30.11,NW,311,7.0,12.0,94,0.41,,,1.54,Wunderground v.1.15,2013-08-22 17:40:00,
2013-08-22 12:50:00,67.9,66.4,30.12,WNW,283,8.0,8.0,95,0.10,,,1.55,Wunderground v.1.15,2013-08-22 17:50:00,
2013-08-22 13:00:00,67.7,66.2,30.11,NW,317,8.0,11.0,95,0.06,,,1.56,Wunderground v.1.15,2013-08-22 18:00:00,
2013-08-22 13:10:00,67.5,66.3,30.11,WNW,302,6.0,6.0,96,0.13,,,1.58,Wunderground v.1.15,2013-08-22 18:10:00,
2013-08-22 13:20:00,67.6,66.1,30.10,North,349,6.0,10.0,95,0.07,,,1.59,Wunderground v.1.15,2013-08-22 18:20:00,
2013-08-22 13:30:00,68.0,66.2,30.08,NE,53,7.0,10.0,94,0.18,,,1.62,Wunderground v.1.15,2013-08-22 18:30:00,
2013-08-22 13:40:00,68.7,67.2,30.08,NE,37,6.0,6.0,95,0.05,,,1.62,Wunderground v.1.15,2013-08-22 18:40:00,
2013-08-22 13:50:00,69.2,67.4,30.07,ENE,77,5.0,10.0,94,0.00,,,1.62,Wunderground v.1.15,2013-08-22 18:50:00,
2013-08-22 14:00:00,70.0,68.2,30.05,SSE,159,3.0,3.0,94,0.00,,,1.62,Wunderground v.1.15,2013-08-22 19:00:00,
2013-08-22 14:05:00,70.4,68.3,30.05,ENE,69,2.0,5.0,93,0.00,,,1.62,Wunderground v.1.15,2013-08-22 19:05:00,
2013-08-22 14:15:00,71.0,68.2,30.05,ENE,75,3.0,16.0,91,0.00,,,1.62,Wunderground v.1.15,2013-08-22 19:15:00,
2013-08-22 14:20:00,71.3,68.9,30.05,ESE,117,2.0,2.0,92,0.00,,,1.62,Wunderground v.1.15,2013-08-22 19:20:00,
2013-08-22 14:30:00,71.8,68.7,30.04,NNE,32,0.0,16.0,90,0.00,,,1.62,Wunderground v.1.15,2013-08-22 19:30:00,
2013-08-22 14:40:00,72.7,68.6,30.04,East,86,0.0,16.0,87,0.00,,,1.62,Wunderground v.1.15,2013-08-22 19:40:00,
2013-08-22 14:50:00,72.8,68.0,30.04,East,85,0.0,16.0,85,0.00,,,1.62,Wunderground v.1.15,2013-08-22 19:50:00,
2013-08-22 14:55:00,73.1,69.0,30.04,East,86,0.0,16.0,87,0.00,,,1.62,Wunderground v.1.15,2013-08-22 19:55:00,
2013-08-22 15:00:00,73.4,68.6,30.03,SSE,160,0.0,0.0,85,0.00,,,1.62,Wunderground v.1.15,2013-08-22 20:00:00,
2013-08-22 15:10:00,73.9,69.4,30.02,ENE,63,0.0,12.0,86,0.00,,,1.62,Wunderground v.1.15,2013-08-22 20:10:00,
2013-08-22 15:20:00,73.8,69.3,30.01,SSE,167,0.0,12.0,86,0.00,,,1.62,Wunderground v.1.15,2013-08-22 20:20:00,
2013-08-22 15:25:00,74.0,69.5,30.01,SW,223,0.0,12.0,86,0.00,,,1.62,Wunderground v.1.15,2013-08-22 20:25:00,
2013-08-22 15:35:00,74.1,69.3,30.01,SE,144,1.0,12.0,85,0.00,,,1.62,Wunderground v.1.15,2013-08-22 20:35:00,
2013-08-22 15:45:00,74.2,69.7,30.01,SW,236,1.0,12.0,86,0.00,,,1.62,Wunderground v.1.15,2013-08-22 20:45:00,
2013-08-22 15:55:00,73.9,69.4,30.01,SW,224,1.0,12.0,86,0.00,,,1.62,Wunderground v.1.15,2013-08-22 20:55:00,
2013-08-22 16:00:00,73.9,69.1,30.00,SSW,196,1.0,2.0,85,0.00,,,1.62,Wunderground v.1.15,2013-08-22 21:00:00,
2013-08-22 16:10:00,74.0,69.9,30.00,South,174,1.0,1.0,87,0.00,,,1.62,Wunderground v.1.15,2013-08-22 21:10:00,
2013-08-22 16:20:00,74.3,70.5,29.99,SW,226,0.0,9.0,88,0.00,,,1.62,Wunderground v.1.15,2013-08-22 21:20:00,
2013-08-22 16:30:00,74.2,69.1,29.99,SSE,155,1.0,9.0,84,0.00,,,1.62,Wunderground v.1.15,2013-08-22 21:30:00,
2013-08-22 16:35:00,74.2,69.4,29.99,SSW,203,1.0,9.0,85,0.00,,,1.62,Wunderground v.1.15,2013-08-22 21:35:00,
2013-08-22 16:45:00,74.3,68.8,29.98,SSW,209,1.0,9.0,83,0.00,,,1.62,Wunderground v.1.15,2013-08-22 21:45:00,
2013-08-22 16:50:00,74.2,69.1,29.98,South,186,1.0,1.0,84,0.00,,,1.62,Wunderground v.1.15,2013-08-22 21:50:00,
2013-08-22 17:00:00,73.8,69.0,29.99,WSW,255,1.0,1.0,85,0.00,,,1.62,Wunderground v.1.15,2013-08-22 22:00:00,
2013-08-22 17:05:00,73.7,69.2,30.00,SW,227,1.0,2.0,86,0.00,,,1.62,Wunderground v.1.15,2013-08-22 22:05:00,
2013-08-22 17:15:00,73.7,69.2,30.00,SSE,162,1.0,4.0,86,0.00,,,1.62,Wunderground v.1.15,2013-08-22 22:15:00,
2013-08-22 17:25:00,73.8,69.7,30.01,West,274,0.0,4.0,87,0.00,,,1.62,Wunderground v.1.15,2013-08-22 22:25:00,
2013-08-22 17:35:00,73.7,69.6,30.01,WSW,250,1.0,4.0,87,0.00,,,1.62,Wunderground v.1.15,2013-08-22 22:35:00,
2013-08-22 17:40:00,73.6,69.2,30.01,WSW,248,1.0,1.0,86,0.00,,,1.62,Wunderground v.1.15,2013-08-22 22:40:00,
2013-08-22 17:50:00,73.6,69.2,30.01,SSW,210,1.0,4.0,86,0.00,,,1.62,Wunderground v.1.15,2013-08-22 22:50:00,
2013-08-22 17:55:00,73.7,69.6,30.01,SSW,200,0.0,4.0,87,0.00,,,1.62,Wunderground v.1.15,2013-08-22 22:55:00,
2013-08-22 18:00:00,73.9,69.1,30.01,SE,146,0.0,0.0,85,0.00,,,1.62,Wunderground v.1.15,2013-08-22 23:00:00,
2013-08-22 18:10:00,74.1,69.3,30.01,South,177,0.0,5.0,85,0.00,,,1.62,Wunderground v.1.15,2013-08-22 23:10:00,
2013-08-22 18:15:00,74.0,69.2,30.01,SSW,201,0.0,5.0,85,0.00,,,1.62,Wunderground v.1.15,2013-08-22 23:15:00,
2013-08-22 18:25:00,73.8,69.0,30.01,SSE,163,0.0,5.0,85,0.00,,,1.62,Wunderground v.1.15,2013-08-22 23:25:00,
2013-08-22 18:30:00,73.6,69.2,30.00,South,174,0.0,5.0,86,0.00,,,1.62,Wunderground v.1.15,2013-08-22 23:30:00,
2013-08-22 18:40:00,73.0,68.9,30.01,WSW,255,1.0,5.0,87,0.00,,,1.62,Wunderground v.1.15,2013-08-22 23:40:00,
2013-08-22 18:45:00,72.7,68.9,30.01,West,263,2.0,5.0,88,0.00,,,1.62,Wunderground v.1.15,2013-08-22 23:45:00,
2013-08-22 18:55:00,72.0,68.9,30.03,NNW,335,2.0,3.0,90,0.00,,,1.62,Wunderground v.1.15,2013-08-22 23:55:00,
2013-08-22 19:00:00,71.9,69.1,30.03,NW,309,3.0,4.0,91,0.00,,,1.62,Wunderground v.1.15,2013-08-23 00:00:00,
2013-08-22 19:10:00,71.7,68.9,30.03,NW,321,3.0,3.0,91,0.00,,,1.62,Wunderground v.1.15,2013-08-23 00:10:00,
2013-08-22 19:20:00,71.3,68.9,30.04,NNW,346,2.0,2.0,92,0.00,,,1.62,Wunderground v.1.15,2013-08-23 00:20:00,
2013-08-22 19:30:00,70.9,68.8,30.04,NNE,14,1.0,4.0,93,0.00,,,1.62,Wunderground v.1.15,2013-08-23 00:30:00,
2013-08-22 19:35:00,70.7,68.6,30.04,NNE,19,1.0,4.0,93,0.00,,,1.62,Wunderground v.1.15,2013-08-23 00:35:00,
2013-08-22 19:45:00,70.4,68.6,30.05,North,5,2.0,4.0,94,0.00,,,1.62,Wunderground v.1.15,2013-08-23 00:45:00,
2013-08-22 19:50:00,70.3,68.5,30.05,North,358,2.0,4.0,94,0.00,,,1.62,Wunderground v.1.15,2013-08-23 00:50:00,
2013-08-22 20:00:00,69.9,68.1,30.05,North,6,1.0,1.0,94,0.00,,,1.62,Wunderground v.1.15,2013-08-23 01:00:00,
2013-08-22 20:10:00,69.6,67.8,30.05,NE,43,1.0,8.0,94,0.00,,,1.62,Wunderground v.1.15,2013-08-23 01:10:00,
2013-08-22 20:20:00,69.4,67.9,30.06,NNE,25,1.0,8.0,95,0.00,,,1.62,Wunderground v.1.15,2013-08-23 01:20:00,
2013-08-22 20:25:00,69.2,67.7,30.06,NE,34,1.0,8.0,95,0.00,,,1.62,Wunderground v.1.15,2013-08-23 01:25:00,
2013-08-22 20:35:00,68.9,67.4,30.06,NE,56,1.0,8.0,95,0.00,,,1.62,Wunderground v.1.15,2013-08-23 01:35:00,
2013-08-22 20:40:00,68.9,67.4,30.06,NE,50,1.0,1.0,95,0.00,,,1.62,Wunderground v.1.15,2013-08-23 01:40:00,
2013-08-22 20:50:00,68.4,66.9,30.06,NE,50,0.0,8.0,95,0.00,,,1.62,Wunderground v.1.15,2013-08-23 01:50:00,
2013-08-22 21:00:00,67.9,66.7,30.07,NE,50,0.0,0.0,96,0.00,,,1.62,Wunderground v.1.15,2013-08-23 02:00:00,
2013-08-22 21:10:00,67.9,66.7,30.07,NE,53,0.0,6.0,96,0.00,,,1.62,Wunderground v.1.15,2013-08-23 02:10:00,
2013-08-22 21:15:00,68.0,67.1,30.07,ENE,65,0.0,6.0,97,0.00,,,1.62,Wunderground v.1.15,2013-08-23 02:15:00,
2013-08-22 21:25:00,67.9,66.7,30.07,East,81,1.0,6.0,96,0.00,,,1.62,Wunderground v.1.15,2013-08-23 02:25:00,
2013-08-22 21:30:00,67.9,66.7,30.07,East,81,0.0,6.0,96,0.00,,,1.62,Wunderground v.1.15,2013-08-23 02:30:00,
2013-08-22 21:40:00,67.8,66.6,30.07,East,82,0.0,6.0,96,0.00,,,1.62,Wunderground v.1.15,2013-08-23 02:40:00,
2013-08-22 21:45:00,67.7,66.5,30.07,East,82,0.0,6.0,96,0.00,,,1.62,Wunderground v.1.15,2013-08-23 02:45:00,
2013-08-22 21:55:00,67.4,66.2,30.07,East,82,0.0,6.0,96,0.00,,,1.62,Wunderground v.1.15,2013-08-23 02:55:00,
2013-08-22 22:00:00,67.2,66.0,30.07,East,82,0.0,0.0,96,0.00,,,1.62,Wunderground v.1.15,2013-08-23 03:00:00,
2013-08-22 22:10:00,66.7,65.5,30.07,East,82,0.0,3.0,96,0.00,,,1.62,Wunderground v.1.15,2013-08-23 03:10:00,
2013-08-22 22:20:00,66.2,65.3,30.07,East,82,1.0,1.0,97,0.00,,,1.62,Wunderground v.1.15,2013-08-23 03:20:00,
2013-08-22 22:30:00,66.3,65.7,30.07,East,82,1.0,1.0,98,0.00,,,1.62,Wunderground v.1.15,2013-08-23 03:30:00,
2013-08-22 22:35:00,66.5,65.9,30.07,East,84,1.0,3.0,98,0.00,,,1.62,Wunderground v.1.15,2013-08-23 03:35:00,
2013-08-22 22:45:00,66.4,65.5,30.07,East,84,0.0,3.0,97,0.00,,,1.62,Wunderground v.1.15,2013-08-23 03:45:00,
2013-08-22 22:50:00,66.6,65.7,30.07,East,84,0.0,3.0,97,0.00,,,1.62,Wunderground v.1.15,2013-08-23 03:50:00,
2013-08-22 23:00:00,66.2,65.3,30.07,East,84,0.0,1.0,97,0.00,,,1.62,Wunderground v.1.15,2013-08-23 04:00:00,
2013-08-22 23:05:00,66.2,65.3,30.07,East,82,1.0,2.0,97,0.00,,,1.62,Wunderground v.1.15,2013-08-23 04:05:00,
2013-08-22 23:10:00,66.3,65.4,30.07,ENE,77,1.0,1.0,97,0.00,,,1.62,Wunderground v.1.15,2013-08-23 04:10:00,
2013-08-22 23:20:00,65.6,64.4,30.07,WSW,251,0.0,1.0,96,0.00,,,1.62,Wunderground v.1.15,2013-08-23 04:20:00,
2013-08-22 23:25:00,65.2,64.3,30.08,WSW,251,1.0,1.0,97,0.00,,,1.62,Wunderground v.1.15,2013-08-23 04:25:00,
2013-08-22 23:30:00,65.1,64.2,30.08,WSW,251,0.0,1.0,97,0.00,,,1.62,Wunderground v.1.15,2013-08-23 04:30:00,
2013-08-22 23:40:00,64.6,63.7,30.08,WSW,251,0.0,1.0,97,0.00,,,1.62,Wunderground v.1.15,2013-08-23 04:40:00,
2013-08-22 23:50:00,64.9,64.3,30.08,WSW,251,0.0,1.0,98,0.00,,,1.62,Wunderground v.1.15,2013-08-23 04:50:00,
2013-08-22 23:55:00,65.0,64.4,30.08,WSW,251,0.0,1.0,98,0.00,,,1.62,Wunderground v.1.15,2013-08-23 04:55:00,